EST,Max TemperatureF,Mean TemperatureF,Min TemperatureF,Max Dew PointF,MeanDew PointF,Min DewpointF,Max Humidity, Mean Humidity, Min Humidity, Max Sea Level PressureIn, Mean Sea Level PressureIn, Min Sea Level PressureIn, Max VisibilityMiles, Mean VisibilityMiles, Min VisibilityMiles, Max Wind SpeedMPH, Mean Wind SpeedMPH, Max Gust SpeedMPH,PrecipitationIn, CloudCover, Events, WindDirDegrees
2013-1-1,46,44,41,46,38,29,100,79,55,30.08,30.00,29.91,10,8,1,12,4,17,0.12,7,Rain,236
2013-1-2,48,40,34,45,37,31,100,83,56,30.19,30.07,29.94,10,8,1,5,1,,0.09,4,Rain,13
2013-1-3,41,33,25,34,30,24,98,81,66,30.26,30.20,30.15,10,9,5,4,0,,0.00,5,,240
2013-1-4,49,35,21,25,21,18,96,60,29,30.32,30.26,30.19,10,10,7,10,4,17,0.00,1,,270
2013-1-5,49,34,20,32,24,19,93,64,35,30.39,30.30,30.22,10,10,10,5,1,,0.00,1,Rain,232
2013-1-6,53,44,35,36,34,29,90,69,52,30.21,30.14,30.04,10,10,10,8,1,,0.00,6,Rain,255
2013-1-7,50,38,26,32,28,25,96,72,43,30.43,30.35,30.19,10,10,7,6,1,,0.00,0,,358
2013-1-8,54,38,21,40,32,20,98,83,56,30.47,30.40,30.36,10,9,3,7,0,,0.00,4,,237
2013-1-9,63,48,32,51,43,32,100,85,61,30.44,30.39,30.35,10,8,2,14,2,20,0.00,2,,229
2013-1-10,60,49,38,46,37,30,100,72,33,30.54,30.47,30.43,10,9,3,6,1,,0.00,0,,49
2013-1-11,46,42,39,45,41,36,100,95,66,30.41,30.28,30.16,10,4,0,7,2,,0.03,8,Fog-Rain,194
2013-1-12,64,54,45,59,52,45,100,96,80,30.17,30.13,30.10,10,4,0,8,2,,0.00,7,Fog-Rain,236
2013-1-13,73,59,46,63,55,46,100,90,64,30.12,30.07,30.03,10,5,0,15,2,21,0.00,5,Fog,227
2013-1-14,62,56,49,62,57,49,100,99,96,30.22,30.11,30.06,10,5,0,10,1,18,1.45,7,Fog-Rain,25
2013-1-15,48,44,40,48,42,40,100,98,95,30.26,30.19,30.09,10,5,1,10,5,17,0.61,8,Rain,46
2013-1-16,48,43,38,48,43,38,100,98,94,30.11,30.02,29.96,10,7,1,6,2,,0.29,8,Rain,235
2013-1-17,48,40,32,48,42,32,100,98,89,30.15,30.02,29.94,10,4,1,14,3,25,1.57,8,Rain-Snow,24
2013-1-18,43,34,24,32,28,23,100,82,46,30.52,30.41,30.17,10,9,2,7,1,,0.00,0,,311
2013-1-19,51,37,23,31,27,23,97,74,39,30.48,30.32,30.13,10,10,10,10,2,,0.00,0,,220
2013-1-20,61,46,32,33,29,25,88,59,28,30.12,30.06,29.99,10,10,10,14,6,21,0.00,0,,253
2013-1-21,58,41,24,33,24,12,98,60,28,30.08,29.99,29.86,10,10,10,17,3,30,0.00,0,,262
2013-1-22,35,28,20,11,0,-7,45,28,17,30.27,30.17,29.99,10,10,10,13,5,22,0.00,0,,302
2013-1-23,38,26,13,18,10,1,86,52,31,30.34,30.22,30.03,10,10,10,10,2,17,0.00,2,,278
2013-1-24,34,25,15,24,11,0,87,52,27,30.50,30.27,29.96,10,10,10,14,2,22,0.00,2,,348
2013-1-25,25,20,15,24,16,8,93,79,54,30.51,30.30,30.09,10,9,3,9,2,,0.02,5,Snow,209
2013-1-26,38,28,18,32,25,17,96,86,65,30.40,30.21,30.08,10,8,3,6,2,,0.00,0,,236
2013-1-27,40,29,19,29,24,18,96,78,60,30.59,30.49,30.40,10,10,7,5,0,,0.00,4,,138
2013-1-28,49,41,33,41,36,28,93,80,58,30.46,30.34,30.21,10,8,3,14,3,17,0.00,5,Rain,223
2013-1-29,70,56,43,55,48,41,100,80,45,30.21,30.14,30.03,10,7,0,14,5,17,0.00,4,Fog-Rain,224
2013-1-30,71,62,53,63,60,52,95,81,63,30.03,29.71,29.38,10,9,1,28,10,41,0.80,7,Rain,195
2013-1-31,53,42,32,52,27,18,97,58,37,29.97,29.80,29.43,10,10,4,20,10,32,0.23,3,Rain,262